Time;durP1;ratioP1;P1;durP2;ratioP2;P2;SDS_P1;SDS_P2;PMS_P1;PMS_P2;Temp;Humidity;BMP_temperature;BMP_pressure;BME280_temperature;BME280_humidity;BME280_pressure;Samples;Min_cycle;Max_cycle;Signal;HPM_P1;HPM_P2
2022/03/13 00:00:37;;;;;;;9.90;6.88;;;12.10;62.10;;;;;;5093299;28;20028;-30
2022/03/13 00:03:04;;;;;;;10.88;6.10;;;12.10;62.00;;;;;;5092891;28;20559;-30
2022/03/13 00:05:30;;;;;;;8.52;6.38;;;12.10;62.70;;;;;;5092975;28;20111;-30
2022/03/13 00:07:56;;;;;;;9.63;6.85;;;12.10;62.60;;;;;;5092747;28;20024;-31
2022/03/13 00:10:27;;;;;;;9.27;6.20;;;12.10;62.40;;;;;;5092776;28;20020;-30
2022/03/13 00:12:54;;;;;;;8.75;6.57;;;12.00;62.80;;;;;;5092775;28;20515;-30
2022/03/13 00:15:35;;;;;;;11.18;6.57;;;12.00;62.70;;;;;;5092949;28;20453;-30
2022/03/13 00:18:01;;;;;;;12.00;6.78;;;12.00;62.30;;;;;;5092681;28;20472;-32
2022/03/13 00:20:27;;;;;;;8.48;6.47;;;11.90;62.20;;;;;;5092994;28;20040;-31
2022/03/13 00:22:57;;;;;;;10.30;7.30;;;11.90;62.30;;;;;;5092865;28;20040;-33
2022/03/13 00:25:24;;;;;;;10.30;6.70;;;11.90;62.20;;;;;;5092837;28;20046;-30
2022/03/13 00:27:51;;;;;;;11.15;6.55;;;11.90;62.40;;;;;;5092398;28;20035;-31
2022/03/13 00:30:17;;;;;;;12.75;6.72;;;11.80;62.30;;;;;;5092822;28;20084;-32
2022/03/13 00:32:42;;;;;;;8.55;6.40;;;11.80;62.30;;;;;;5092573;28;20031;-32
2022/03/13 00:35:08;;;;;;;9.15;6.50;;;11.70;62.30;;;;;;5092383;28;20024;-31
2022/03/13 00:37:34;;;;;;;10.15;6.72;;;11.70;62.40;;;;;;5092510;28;20472;-33
2022/03/13 00:40:01;;;;;;;8.95;6.38;;;11.70;62.30;;;;;;5092771;28;20052;-32
2022/03/13 00:42:28;;;;;;;6.88;5.75;;;11.60;62.60;;;;;;5092470;28;20020;-31
2022/03/13 00:44:53;;;;;;;10.07;6.50;;;11.60;63.00;;;;;;5092616;28;20492;-31
2022/03/13 00:47:20;;;;;;;8.50;6.40;;;11.60;62.90;;;;;;5092479;28;20107;-30
2022/03/13 00:49:47;;;;;;;9.18;6.22;;;11.60;62.90;;;;;;5092415;28;20024;-32
2022/03/13 00:52:13;;;;;;;8.65;6.22;;;11.60;62.70;;;;;;5092370;28;20027;-31
2022/03/13 00:54:39;;;;;;;8.93;5.95;;;11.60;62.70;;;;;;5092007;28;20035;-32
2022/03/13 00:57:05;;;;;;;9.85;6.53;;;11.60;62.60;;;;;;5092396;28;20028;-30
2022/03/13 00:59:31;;;;;;;9.02;6.25;;;11.60;62.30;;;;;;5092480;28;20468;-33
2022/03/13 01:01:57;;;;;;;8.18;5.70;;;11.60;62.60;;;;;;5092276;28;20059;-32
2022/03/13 01:04:22;;;;;;;8.18;5.90;;;11.60;63.10;;;;;;5092270;28;20567;-30
2022/03/13 01:06:48;;;;;;;9.85;6.60;;;11.60;63.10;;;;;;5092417;28;20036;-31
2022/03/13 01:09:13;;;;;;;8.88;6.25;;;11.60;62.80;;;;;;5075410;28;20024;-35
2022/03/13 01:11:39;;;;;;;7.38;5.55;;;11.60;63.40;;;;;;5096357;28;20059;-31
2022/03/13 01:14:06;;;;;;;8.82;6.13;;;11.60;63.90;;;;;;5096037;28;20031;-30
2022/03/13 01:16:38;;;;;;;12.70;6.20;;;11.60;63.90;;;;;;5096111;28;20433;-33
2022/03/13 01:19:04;;;;;;;10.18;7.00;;;11.60;63.50;;;;;;5096282;28;20028;-33
2022/03/13 01:21:32;;;;;;;7.63;5.72;;;11.60;63.30;;;;;;5077742;28;20028;-31
2022/03/13 01:24:01;;;;;;;9.75;5.97;;;11.60;63.20;;;;;;5095876;28;20028;-31
2022/03/13 01:26:26;;;;;;;9.18;6.70;;;11.50;63.20;;;;;;5096003;28;20107;-31
2022/03/13 01:28:58;;;;;;;8.88;6.50;;;11.60;63.30;;;;;;5096007;28;20162;-32
2022/03/13 01:31:26;;;;;;;10.20;7.28;;;11.60;62.90;;;;;;5095819;28;20111;-32
2022/03/13 01:33:52;;;;;;;10.40;7.05;;;11.60;62.80;;;;;;5095739;28;20561;-30
2022/03/13 01:36:17;;;;;;;10.15;7.43;;;11.60;62.70;;;;;;5095697;28;20055;-30
2022/03/13 01:38:43;;;;;;;8.75;6.50;;;11.60;62.50;;;;;;5095608;28;20060;-34
2022/03/13 01:41:09;;;;;;;9.50;7.13;;;11.60;62.30;;;;;;5095597;28;20032;-30
2022/03/13 01:43:36;;;;;;;9.27;7.07;;;11.60;62.30;;;;;;5095609;28;20418;-32
2022/03/13 01:46:03;;;;;;;10.05;7.65;;;11.60;62.10;;;;;;5095667;28;20114;-31
2022/03/13 01:48:29;;;;;;;10.93;7.60;;;11.70;62.10;;;;;;5077191;28;20032;-31
2022/03/13 01:50:55;;;;;;;11.45;8.13;;;11.60;61.90;;;;;;5095485;28;20502;-31
2022/03/13 01:53:21;;;;;;;11.57;7.82;;;11.60;61.90;;;;;;5095317;28;20020;-30
2022/03/13 01:55:48;;;;;;;12.40;8.10;;;11.60;61.90;;;;;;5095334;28;20071;-32
2022/03/13 01:58:15;;;;;;;11.55;8.23;;;11.50;61.90;;;;;;5095248;28;20028;-30
2022/03/13 02:00:40;;;;;;;10.82;7.80;;;11.50;61.90;;;;;;5095128;28;20484;-35
2022/03/13 02:03:06;;;;;;;12.02;8.23;;;11.50;62.00;;;;;;5095137;28;20084;-32
2022/03/13 02:05:34;;;;;;;10.30;7.78;;;11.40;61.90;;;;;;5095043;28;20081;-32
2022/03/13 02:08:10;;;;;;;13.00;8.60;;;11.40;62.00;;;;;;5094902;28;20114;-31
2022/03/13 02:10:36;;;;;;;11.85;8.27;;;11.30;62.10;;;;;;5094986;28;20024;-30
2022/03/13 02:13:01;;;;;;;13.02;8.85;;;11.30;62.10;;;;;;5095056;28;20028;-30
2022/03/13 02:15:30;;;;;;;12.15;8.35;;;11.20;62.10;;;;;;5094864;28;20050;-32
2022/03/13 02:17:56;;;;;;;14.40;9.13;;;11.10;62.20;;;;;;5095211;28;20036;-36
2022/03/13 02:20:26;;;;;;;11.68;8.85;;;11.10;62.20;;;;;;5094302;28;20508;-33
2022/03/13 02:22:59;;;;;;;12.95;8.80;;;11.10;62.30;;;;;;5076613;28;20020;-35
2022/03/13 02:25:25;;;;;;;12.88;8.70;;;11.10;62.30;;;;;;5094737;28;20021;-30
2022/03/13 02:27:51;;;;;;;13.27;9.13;;;11.10;62.40;;;;;;5094824;28;20031;-31
2022/03/13 02:30:24;;;;;;;13.55;9.27;;;11.00;62.50;;;;;;5094854;28;20099;-30
2022/03/13 02:32:50;;;;;;;16.85;9.68;;;10.90;62.40;;;;;;5076729;28;20392;-30
2022/03/13 02:35:17;;;;;;;12.85;8.85;;;10.90;62.50;;;;;;5094593;28;20030;-31
2022/03/13 02:37:43;;;;;;;12.90;9.13;;;10.90;62.50;;;;;;5076264;28;20028;-32
2022/03/13 02:40:17;;;;;;;11.75;8.50;;;10.90;62.50;;;;;;5094528;28;20032;-30
2022/03/13 02:42:43;;;;;;;11.63;8.65;;;10.90;62.40;;;;;;5076285;28;20112;-31
2022/03/13 02:45:09;;;;;;;14.02;9.57;;;10.90;62.30;;;;;;5076248;28;20052;-31
2022/03/13 02:47:34;;;;;;;14.70;9.88;;;10.90;62.40;;;;;;5094183;28;20032;-33
2022/03/13 02:50:00;;;;;;;12.63;8.63;;;10.80;62.40;;;;;;5094272;28;20055;-30
2022/03/13 02:52:26;;;;;;;13.32;9.18;;;10.80;62.90;;;;;;5094223;28;20452;-30
2022/03/13 02:54:51;;;;;;;13.75;9.10;;;10.80;62.50;;;;;;5094073;28;20387;-32
2022/03/13 02:57:17;;;;;;;12.25;8.15;;;10.80;62.60;;;;;;5075826;28;20024;-35
2022/03/13 02:59:43;;;;;;;13.23;8.65;;;10.80;62.90;;;;;;5094066;28;20027;-32
2022/03/13 03:02:09;;;;;;;11.25;7.82;;;10.80;62.90;;;;;;5093999;28;20024;-31
2022/03/13 03:04:35;;;;;;;10.77;7.93;;;10.70;63.10;;;;;;5093870;28;20024;-30
2022/03/13 03:07:03;;;;;;;11.38;8.68;;;10.70;63.60;;;;;;5093879;28;20483;-30
2022/03/13 03:09:30;;;;;;;12.90;9.68;;;10.70;63.40;;;;;;5094016;28;20032;-33
2022/03/13 03:12:01;;;;;;;12.55;8.88;;;10.60;63.30;;;;;;5093763;28;20025;-31
2022/03/13 03:14:31;;;;;;;14.43;8.95;;;10.50;63.40;;;;;;5094011;28;20020;-32
2022/03/13 03:16:57;;;;;;;13.30;9.13;;;10.50;64.30;;;;;;5093833;28;20545;-30
2022/03/13 03:19:23;;;;;;;12.50;8.60;;;10.50;64.00;;;;;;5093782;28;20078;-31
2022/03/13 03:21:49;;;;;;;15.85;9.38;;;10.50;63.80;;;;;;5093708;28;20031;-30
2022/03/13 03:24:18;;;;;;;16.65;9.55;;;10.50;63.80;;;;;;5094021;28;20021;-30
2022/03/13 03:26:45;;;;;;;13.75;9.10;;;10.50;63.60;;;;;;5093599;28;20024;-30
2022/03/13 03:29:12;;;;;;;13.25;9.23;;;10.50;63.50;;;;;;5093632;28;20053;-31
2022/03/13 03:31:45;;;;;;;13.55;9.10;;;10.50;63.50;;;;;;5075179;28;20028;-31
2022/03/13 03:34:12;;;;;;;;;;;10.50;63.60;;;;;;5094003;28;20484;-32
2022/03/13 03:36:40;;;;;;;14.93;8.23;;;10.50;63.50;;;;;;5093437;28;19915;-32
2022/03/13 03:39:06;;;;;;;12.80;8.70;;;10.40;64.30;;;;;;5075451;28;20028;-32
2022/03/13 03:41:32;;;;;;;14.30;8.80;;;10.40;64.00;;;;;;5093385;28;20031;-31
2022/03/13 03:43:58;;;;;;;13.02;8.75;;;10.40;63.90;;;;;;5093290;28;20031;-33
2022/03/13 03:46:24;;;;;;;13.35;8.60;;;10.30;63.70;;;;;;5093253;28;20476;-30
2022/03/13 03:48:50;;;;;;;15.02;9.27;;;10.30;63.60;;;;;;5093218;28;20042;-31
2022/03/13 03:51:15;;;;;;;12.30;8.45;;;10.30;63.60;;;;;;5093185;28;20024;-31
2022/03/13 03:53:42;;;;;;;13.02;9.23;;;10.30;63.70;;;;;;5093255;28;20418;-31
2022/03/13 03:56:08;;;;;;;13.60;8.70;;;10.30;63.60;;;;;;5093106;28;20202;-31
2022/03/13 03:58:33;;;;;;;13.05;8.38;;;10.30;64.20;;;;;;5075149;28;20028;-31
2022/03/13 04:00:59;;;;;;;12.25;8.80;;;10.40;63.50;;;;;;5092984;28;20032;-30
2022/03/13 04:03:25;;;;;;;12.77;8.73;;;10.40;63.40;;;;;;5092997;28;20020;-33
2022/03/13 04:05:50;;;;;;;13.63;8.90;;;10.40;63.50;;;;;;5092921;28;20124;-32
2022/03/13 04:08:16;;;;;;;12.63;8.57;;;10.40;63.50;;;;;;5092898;28;20111;-31
2022/03/13 04:10:42;;;;;;;11.63;8.45;;;10.40;63.40;;;;;;5092823;28;20024;-30
2022/03/13 04:13:07;;;;;;;11.95;8.30;;;10.40;63.30;;;;;;5092806;28;20028;-33
2022/03/13 04:15:33;;;;;;;13.10;8.57;;;10.40;63.20;;;;;;5092881;28;20028;-36
2022/03/13 04:17:58;;;;;;;12.45;8.18;;;10.40;63.70;;;;;;5092839;28;20031;-31
2022/03/13 04:20:24;;;;;;;12.43;8.48;;;10.40;63.40;;;;;;5093125;28;20036;-31
2022/03/13 04:22:50;;;;;;;12.32;8.65;;;10.40;63.20;;;;;;5093100;28;20039;-32
2022/03/13 04:25:16;;;;;;;13.30;8.63;;;10.40;63.60;;;;;;5093112;28;20430;-30
2022/03/13 04:27:44;;;;;;;11.07;8.27;;;10.40;62.80;;;;;;5074426;28;20516;-33
2022/03/13 04:30:10;;;;;;;12.43;8.18;;;10.40;62.80;;;;;;5092920;28;20066;-31
2022/03/13 04:32:36;;;;;;;12.02;7.53;;;10.50;62.70;;;;;;5092935;28;20393;-31
2022/03/13 04:35:01;;;;;;;13.35;8.75;;;10.50;62.90;;;;;;5092902;28;20056;-37
2022/03/13 04:37:27;;;;;;;13.98;7.88;;;10.50;62.70;;;;;;5092503;28;20071;-31
2022/03/13 04:39:53;;;;;;;15.02;8.55;;;10.50;62.70;;;;;;5092820;28;20099;-31
2022/03/13 04:42:19;;;;;;;12.38;8.50;;;10.50;62.50;;;;;;5092473;28;20115;-34
2022/03/13 04:44:45;;;;;;;11.45;8.30;;;10.50;62.40;;;;;;5094609;28;20107;-33
2022/03/13 04:47:11;;;;;;;13.45;8.43;;;10.50;62.40;;;;;;5096604;28;20035;-34
2022/03/13 04:49:37;;;;;;;13.32;8.05;;;10.40;62.20;;;;;;5096692;28;20024;-31
2022/03/13 04:52:04;;;;;;;11.07;8.00;;;10.50;62.00;;;;;;5096941;28;20376;-31
2022/03/13 04:54:30;;;;;;;11.05;7.85;;;10.50;61.90;;;;;;5096618;28;20024;-35
2022/03/13 04:56:56;;;;;;;12.38;8.20;;;10.40;62.40;;;;;;5096364;28;20403;-32
2022/03/13 04:59:21;;;;;;;12.30;7.90;;;10.40;62.00;;;;;;5096485;28;20051;-31
2022/03/13 05:01:47;;;;;;;11.63;7.10;;;10.40;61.90;;;;;;5096496;28;20028;-31
2022/03/13 05:04:13;;;;;;;11.10;7.72;;;10.40;61.70;;;;;;5096377;28;20098;-31
2022/03/13 05:06:40;;;;;;;12.73;7.95;;;10.40;61.50;;;;;;5078101;28;20028;-31
2022/03/13 05:09:06;;;;;;;9.60;7.28;;;10.30;61.30;;;;;;5096171;28;20427;-34
2022/03/13 05:11:32;;;;;;;9.75;6.85;;;10.40;61.20;;;;;;5096146;28;20023;-31
2022/03/13 05:13:58;;;;;;;12.30;7.75;;;10.40;61.10;;;;;;5096231;28;20027;-31
2022/03/13 05:16:23;;;;;;;12.48;7.60;;;10.30;60.90;;;;;;5096166;28;20122;-31
2022/03/13 05:18:49;;;;;;;10.45;7.28;;;10.40;60.70;;;;;;5096690;28;20027;-38
2022/03/13 05:21:15;;;;;;;10.85;6.70;;;10.40;60.60;;;;;;5095956;28;20028;-35
2022/03/13 05:23:41;;;;;;;11.18;7.38;;;10.40;60.50;;;;;;5096238;28;20368;-32
2022/03/13 05:26:06;;;;;;;11.80;7.25;;;10.40;60.40;;;;;;5096108;28;20028;-31
2022/03/13 05:28:32;;;;;;;13.52;7.40;;;10.40;60.30;;;;;;5096190;28;20481;-31
2022/03/13 05:30:58;;;;;;;11.45;6.78;;;10.40;60.30;;;;;;5078008;28;20028;-35
2022/03/13 05:33:23;;;;;;;12.05;6.97;;;10.40;60.30;;;;;;5095883;28;20109;-33
2022/03/13 05:35:49;;;;;;;11.27;7.88;;;10.40;60.10;;;;;;5095947;28;20552;-31
2022/03/13 05:38:15;;;;;;;10.95;7.80;;;10.40;60.10;;;;;;5095610;28;20103;-32
2022/03/13 05:40:40;;;;;;;10.27;7.25;;;10.40;59.90;;;;;;5095540;28;20054;-33
2022/03/13 05:43:06;;;;;;;12.15;7.07;;;10.40;59.70;;;;;;5077477;28;20380;-31
2022/03/13 05:45:32;;;;;;;9.70;7.15;;;10.40;59.50;;;;;;5095795;28;20024;-30
2022/03/13 05:48:00;;;;;;;10.32;6.88;;;10.40;59.40;;;;;;5095375;28;20506;-31
2022/03/13 05:50:28;;;;;;;10.85;6.97;;;10.40;59.30;;;;;;5077254;28;20047;-31
2022/03/13 05:52:56;;;;;;;11.48;7.72;;;10.40;59.10;;;;;;5077503;28;20024;-31
2022/03/13 05:55:28;;;;;;;11.90;6.80;;;10.40;58.90;;;;;;5094212;28;20047;-31
2022/03/13 05:57:54;;;;;;;11.02;7.28;;;10.40;58.80;;;;;;5077132;28;20024;-37
2022/03/13 06:00:21;;;;;;;11.30;7.10;;;10.40;58.60;;;;;;5095250;28;20487;-32
2022/03/13 06:02:48;;;;;;;10.05;6.75;;;10.40;58.50;;;;;;5095169;28;20024;-30
2022/03/13 06:05:16;;;;;;;11.82;6.70;;;10.40;58.30;;;;;;5095233;28;20035;-31
2022/03/13 06:07:42;;;;;;;12.20;6.93;;;10.40;58.20;;;;;;5095267;28;20433;-32
2022/03/13 06:10:08;;;;;;;10.23;7.05;;;10.40;58.20;;;;;;5095023;28;20039;-34
2022/03/13 06:12:35;;;;;;;9.75;6.63;;;10.40;58.00;;;;;;5076843;28;20468;-33
2022/03/13 06:15:03;;;;;;;9.43;6.75;;;10.30;57.80;;;;;;5094976;28;20027;-36
2022/03/13 06:17:28;;;;;;;10.13;6.80;;;10.30;57.70;;;;;;5095033;28;20027;-32
2022/03/13 06:19:57;;;;;;;9.75;6.78;;;10.30;57.60;;;;;;5095000;28;20103;-31
2022/03/13 06:22:24;;;;;;;9.57;6.65;;;10.40;57.50;;;;;;5095179;28;20097;-31
2022/03/13 06:24:50;;;;;;;11.25;6.60;;;10.40;57.50;;;;;;5095076;28;20368;-35
2022/03/13 06:27:17;;;;;;;10.25;6.88;;;10.30;57.30;;;;;;5094784;28;20031;-30
2022/03/13 06:29:44;;;;;;;9.02;6.45;;;10.30;57.40;;;;;;5094718;28;20024;-34
2022/03/13 06:32:10;;;;;;;11.00;6.53;;;10.30;57.20;;;;;;5094621;28;20024;-30
2022/03/13 06:34:36;;;;;;;8.60;6.28;;;10.30;57.10;;;;;;5094609;28;20020;-36
2022/03/13 06:37:04;;;;;;;10.40;6.72;;;10.30;57.10;;;;;;5094927;28;20081;-31
2022/03/13 06:39:30;;;;;;;9.10;6.75;;;10.40;57.00;;;;;;5094791;28;20024;-30
2022/03/13 06:41:56;;;;;;;8.60;6.28;;;10.30;56.80;;;;;;5094477;28;20032;-31
2022/03/13 06:44:21;;;;;;;11.95;6.82;;;10.40;56.70;;;;;;5094485;28;20027;-32
2022/03/13 06:46:47;;;;;;;10.43;7.10;;;10.30;56.40;;;;;;5076641;28;20116;-31
2022/03/13 06:49:12;;;;;;;9.30;5.97;;;10.40;56.40;;;;;;5094449;28;20028;-32
2022/03/13 06:51:38;;;;;;;10.23;6.25;;;10.40;56.50;;;;;;5076298;28;20020;-34
2022/03/13 06:54:06;;;;;;;9.00;6.28;;;10.40;56.40;;;;;;5094364;28;20383;-32
2022/03/13 06:56:32;;;;;;;10.30;6.00;;;10.40;56.20;;;;;;5094152;28;20119;-36
2022/03/13 06:59:03;;;;;;;8.52;5.80;;;10.40;56.10;;;;;;5094349;28;20108;-33
2022/03/13 07:01:33;;;;;;;9.73;6.50;;;10.40;55.90;;;;;;5075972;28;20036;-32
2022/03/13 07:03:58;;;;;;;9.45;6.35;;;10.50;55.90;;;;;;5094348;28;20050;-33
2022/03/13 07:06:24;;;;;;;8.35;5.78;;;10.50;55.90;;;;;;5093888;28;20032;-35
2022/03/13 07:08:50;;;;;;;7.72;5.55;;;10.50;55.90;;;;;;5093767;28;20035;-33
2022/03/13 07:11:16;;;;;;;8.68;5.53;;;10.50;56.40;;;;;;5094143;28;20031;-31
2022/03/13 07:13:45;;;;;;;9.00;6.68;;;10.50;56.40;;;;;;5093806;28;20031;-34
2022/03/13 07:16:13;;;;;;;8.43;5.63;;;10.60;56.10;;;;;;5094099;28;20023;-33
2022/03/13 07:18:39;;;;;;;7.60;5.38;;;10.50;56.20;;;;;;5093970;28;20426;-30
2022/03/13 07:21:05;;;;;;;11.18;6.18;;;10.60;56.00;;;;;;5094108;28;20511;-31
2022/03/13 07:23:30;;;;;;;9.95;6.05;;;10.60;55.80;;;;;;5093623;28;20056;-30
2022/03/13 07:25:56;;;;;;;8.40;5.82;;;10.50;56.00;;;;;;5093579;28;20480;-32
2022/03/13 07:28:22;;;;;;;9.77;5.85;;;10.50;55.80;;;;;;5093588;28;20110;-32
2022/03/13 07:30:47;;;;;;;9.75;6.15;;;10.50;55.90;;;;;;5093642;28;20031;-30
2022/03/13 07:33:13;;;;;;;7.90;5.85;;;10.50;55.90;;;;;;5093598;28;20141;-33
2022/03/13 07:35:39;;;;;;;8.52;6.13;;;10.60;55.90;;;;;;5093681;28;20020;-31
2022/03/13 07:38:06;;;;;;;9.18;5.82;;;10.60;55.50;;;;;;5093512;28;20028;-36
2022/03/13 07:40:32;;;;;;;8.40;5.90;;;10.60;55.30;;;;;;5093707;28;20024;-30
2022/03/13 07:42:58;;;;;;;9.88;6.63;;;10.60;55.10;;;;;;5093440;28;20035;-30
2022/03/13 07:45:24;;;;;;;8.10;5.30;;;10.70;54.90;;;;;;5093414;28;20027;-33
2022/03/13 07:47:50;;;;;;;9.50;6.05;;;10.70;54.90;;;;;;5093228;28;20028;-35
2022/03/13 07:50:16;;;;;;;8.02;5.43;;;10.70;54.90;;;;;;5093240;28;20024;-37
2022/03/13 07:52:42;;;;;;;9.00;5.72;;;10.70;55.00;;;;;;5093227;28;20031;-32
2022/03/13 07:55:08;;;;;;;8.35;5.65;;;10.80;55.90;;;;;;5093081;28;20047;-31
2022/03/13 07:57:33;;;;;;;9.50;5.72;;;10.80;55.30;;;;;;5093207;28;20532;-35
2022/03/13 07:59:59;;;;;;;9.40;5.65;;;10.80;55.20;;;;;;5093197;28;20056;-34
2022/03/13 08:02:25;;;;;;;10.20;5.85;;;10.80;55.20;;;;;;5093109;28;20035;-33
2022/03/13 08:04:50;;;;;;;9.38;6.47;;;10.90;54.90;;;;;;5093273;28;20448;-31
2022/03/13 08:07:16;;;;;;;8.82;6.03;;;10.90;54.50;;;;;;5092980;28;20028;-30
2022/03/13 08:09:41;;;;;;;10.23;6.22;;;10.90;54.10;;;;;;5093032;28;20032;-33
2022/03/13 08:12:07;;;;;;;8.85;6.05;;;11.00;53.80;;;;;;5093204;28;20497;-30
2022/03/13 08:14:33;;;;;;;7.55;5.00;;;11.00;53.90;;;;;;5093098;28;20498;-32
2022/03/13 08:16:58;;;;;;;8.95;5.43;;;11.10;53.90;;;;;;5092863;28;20028;-32
2022/03/13 08:19:25;;;;;;;10.32;6.30;;;11.10;53.90;;;;;;5092219;28;20021;-32
2022/03/13 08:21:51;;;;;;;8.45;6.07;;;11.20;53.90;;;;;;5092870;28;20031;-32
2022/03/13 08:24:17;;;;;;;8.50;5.80;;;11.20;53.80;;;;;;5092636;28;20362;-31
2022/03/13 08:26:43;;;;;;;9.68;6.50;;;11.30;53.50;;;;;;5093003;28;20055;-30
2022/03/13 08:29:10;;;;;;;8.85;6.00;;;11.30;53.20;;;;;;5092640;28;20028;-33
2022/03/13 08:31:37;;;;;;;9.25;6.35;;;11.30;53.30;;;;;;5092847;28;20031;-33
2022/03/13 08:34:08;;;;;;;9.25;6.15;;;11.30;53.40;;;;;;5092665;28;20055;-31
2022/03/13 08:36:36;;;;;;;8.93;6.25;;;11.30;53.10;;;;;;5092969;28;20400;-31
2022/03/13 08:39:03;;;;;;;9.45;6.38;;;11.40;52.90;;;;;;5092929;28;20422;-36
2022/03/13 08:41:28;;;;;;;8.90;6.07;;;11.30;53.40;;;;;;5092926;28;20502;-30
2022/03/13 08:43:54;;;;;;;7.82;5.97;;;11.40;53.30;;;;;;5092664;28;20024;-37
2022/03/13 08:46:20;;;;;;;8.20;5.45;;;11.30;53.50;;;;;;5092532;28;20036;-30
2022/03/13 08:48:45;;;;;;;6.50;5.10;;;11.30;53.70;;;;;;5092567;28;20032;-32
2022/03/13 08:51:13;;;;;;;7.82;4.85;;;11.40;54.20;;;;;;5092538;28;20081;-30
2022/03/13 08:53:39;;;;;;;7.78;5.28;;;11.40;54.60;;;;;;5092509;28;20028;-30
2022/03/13 08:56:04;;;;;;;8.82;5.68;;;11.40;55.80;;;;;;5092378;28;20438;-30
2022/03/13 08:58:30;;;;;;;7.63;5.63;;;11.40;54.70;;;;;;5092551;28;20470;-34
2022/03/13 09:00:57;;;;;;;8.45;6.03;;;11.40;54.10;;;;;;5092496;28;20028;-30
2022/03/13 09:03:22;;;;;;;7.45;5.47;;;11.40;54.50;;;;;;5092723;28;20488;-31
2022/03/13 09:05:48;;;;;;;7.68;5.15;;;11.30;54.60;;;;;;5092304;28;20034;-32
2022/03/13 09:08:15;;;;;;;9.43;5.70;;;11.40;55.40;;;;;;5092420;28;20012;-31
2022/03/13 09:10:41;;;;;;;8.30;5.65;;;11.40;54.40;;;;;;5092220;28;20020;-31
2022/03/13 09:13:06;;;;;;;9.00;5.32;;;11.40;54.00;;;;;;5074235;28;20027;-30
2022/03/13 09:15:32;;;;;;;7.15;4.78;;;11.50;54.10;;;;;;5092555;28;20464;-31
2022/03/13 09:18:02;;;;;;;7.45;5.53;;;11.60;55.50;;;;;;5092183;28;20555;-35
2022/03/13 09:20:27;;;;;;;8.00;5.15;;;11.70;56.30;;;;;;5092254;28;20048;-34
2022/03/13 09:22:53;;;;;;;9.77;6.07;;;11.70;54.90;;;;;;5092292;28;20032;-32
2022/03/13 09:25:20;;;;;;;7.72;5.57;;;11.80;53.90;;;;;;5092205;28;20021;-32
2022/03/13 09:27:45;;;;;;;7.97;5.30;;;11.90;53.60;;;;;;5092264;28;20431;-32
2022/03/13 09:30:12;;;;;;;9.65;5.25;;;12.00;55.30;;;;;;5093344;28;20024;-32
2022/03/13 09:32:38;;;;;;;8.68;5.80;;;12.00;56.00;;;;;;5095679;28;20070;-31
2022/03/13 09:35:04;;;;;;;9.95;5.72;;;12.10;55.50;;;;;;5096071;28;20020;-31
2022/03/13 09:37:30;;;;;;;9.23;6.40;;;12.20;54.20;;;;;;5095703;28;20035;-32
2022/03/13 09:39:56;;;;;;;9.70;6.13;;;12.30;53.30;;;;;;5077697;28;20035;-31
2022/03/13 09:42:22;;;;;;;9.45;6.45;;;12.30;52.80;;;;;;5095616;28;20114;-31
2022/03/13 09:44:47;;;;;;;9.52;6.57;;;12.40;52.00;;;;;;5095861;28;20472;-33
2022/03/13 09:47:13;;;;;;;7.88;5.80;;;12.60;51.80;;;;;;5077310;28;20024;-32
2022/03/13 09:49:42;;;;;;;9.50;6.70;;;12.70;51.60;;;;;;5095577;28;20036;-37
2022/03/13 09:52:08;;;;;;;10.20;6.20;;;12.80;51.20;;;;;;5095424;28;20081;-31
2022/03/13 09:54:34;;;;;;;11.43;6.50;;;12.90;51.10;;;;;;5095489;28;20032;-30
2022/03/13 09:57:02;;;;;;;9.73;6.55;;;13.00;51.00;;;;;;5095257;28;20036;-33
2022/03/13 09:59:28;;;;;;;9.20;6.15;;;13.00;50.80;;;;;;5095503;28;20055;-32
2022/03/13 10:01:53;;;;;;;8.60;5.97;;;13.10;50.90;;;;;;5095041;28;20077;-31
2022/03/13 10:04:19;;;;;;;11.20;6.80;;;13.10;50.60;;;;;;5095115;28;20039;-33
2022/03/13 10:07:24;;;;;;;10.05;6.53;;;13.20;50.30;;;;;;5095244;28;20024;-37
2022/03/13 10:09:50;;;;;;;11.15;6.25;;;13.30;50.20;;;;;;4973969;28;20027;-31
2022/03/13 10:12:16;;;;;;;10.63;7.00;;;13.30;50.20;;;;;;4974235;28;20037;-32
2022/03/13 10:15:03;;;;;;;12.98;6.82;;;13.30;49.60;;;;;;5031962;28;20032;-31
2022/03/13 10:17:30;;;;;;;10.43;6.70;;;13.30;49.70;;;;;;5095433;28;20149;-33
2022/03/13 10:20:11;;;;;;;10.63;6.85;;;13.30;49.90;;;;;;5095196;28;20028;-32
2022/03/13 10:22:38;;;;;;;10.38;6.75;;;13.30;49.80;;;;;;5095026;28;20024;-32
2022/03/13 10:25:05;;;;;;;10.88;7.13;;;13.40;49.80;;;;;;5095424;28;20365;-31
2022/03/13 10:27:33;;;;;;;10.15;7.50;;;13.40;49.70;;;;;;5094894;28;20027;-36
2022/03/13 10:30:01;;;;;;;12.40;7.13;;;13.40;49.60;;;;;;5094835;28;20028;-33
2022/03/13 10:32:26;;;;;;;9.02;6.65;;;13.50;49.50;;;;;;5094847;28;20059;-34
2022/03/13 10:35:01;;;;;;;9.23;6.65;;;13.60;49.50;;;;;;5094948;28;20056;-31
2022/03/13 10:37:39;;;;;;;13.13;7.13;;;13.60;49.40;;;;;;5076633;28;20468;-32
2022/03/13 10:40:18;;;;;;;9.75;6.95;;;13.60;49.40;;;;;;5094850;28;20031;-31
2022/03/13 10:42:43;;;;;;;10.38;6.82;;;13.70;49.30;;;;;;5093989;28;20016;-33
2022/03/13 10:45:36;;;;;;;15.75;8.52;;;13.90;49.10;;;;;;5094574;28;20031;-32
2022/03/13 10:48:29;;;;;;;10.52;6.43;;;14.00;48.80;;;;;;5094827;28;20032;-40
2022/03/13 10:50:57;;;;;;;9.90;7.13;;;14.20;48.30;;;;;;5089755;28;20039;-29
2022/03/13 10:53:24;;;;;;;11.75;6.70;;;14.30;49.20;;;;;;5076653;28;20026;-33
2022/03/13 10:56:20;;;;;;;12.65;7.57;;;14.50;48.60;;;;;;5094454;28;20490;-32
2022/03/13 10:58:47;;;;;;;13.35;8.52;;;14.60;48.10;;;;;;5069845;28;20534;-30
2022/03/13 11:01:18;;;;;;;11.65;7.97;;;14.50;48.20;;;;;;5094429;28;20103;-32
2022/03/13 11:04:06;;;;;;;10.90;7.72;;;14.60;48.20;;;;;;5076109;28;20031;-30
2022/03/13 11:06:32;;;;;;;10.90;7.80;;;14.60;48.40;;;;;;5094236;28;20099;-31
2022/03/13 11:08:59;;;;;;;14.40;8.60;;;14.70;48.10;;;;;;5094036;28;20053;-31
2022/03/13 11:11:29;;;;;;;11.70;8.02;;;14.80;48.00;;;;;;5076422;28;20044;-31
2022/03/13 11:14:01;;;;;;;10.55;7.65;;;15.00;48.10;;;;;;5094052;28;20077;-30
2022/03/13 11:16:31;;;;;;;11.30;7.70;;;15.10;48.10;;;;;;5094308;28;20012;-34
2022/03/13 11:19:02;;;;;;;11.65;7.20;;;15.20;48.00;;;;;;5094084;28;20035;-32
2022/03/13 11:21:28;;;;;;;10.00;7.40;;;15.40;47.70;;;;;;5094013;28;20035;-34
2022/03/13 11:23:55;;;;;;;10.63;7.63;;;15.40;47.70;;;;;;5093978;28;20078;-31
2022/03/13 11:26:24;;;;;;;11.25;7.10;;;15.50;47.70;;;;;;5093776;28;20553;-34
2022/03/13 11:28:50;;;;;;;10.82;7.00;;;15.60;47.70;;;;;;5093856;28;20020;-31
2022/03/13 11:31:41;;;;;;;13.60;8.25;;;15.60;47.20;;;;;;5093582;28;20103;-32
2022/03/13 11:34:14;;;;;;;14.38;7.63;;;15.60;47.40;;;;;;5093573;28;20031;-37
2022/03/13 11:36:41;;;;;;;;;;;15.50;47.80;;;;;;5076069;28;20021;-33
2022/03/13 11:39:09;;;;;;;11.40;7.30;;;15.50;47.70;;;;;;5093759;28;20249;-33
2022/03/13 11:41:46;;;;;;;9.73;6.53;;;15.50;48.10;;;;;;5093698;28;20024;-34
2022/03/13 11:44:18;;;;;;;8.27;5.82;;;15.60;48.20;;;;;;5093307;28;20028;-31
2022/03/13 11:46:46;;;;;;;7.90;5.68;;;15.60;49.00;;;;;;5093105;28;20028;-31
2022/03/13 11:49:29;;;;;;;8.50;5.78;;;15.60;50.40;;;;;;5075026;28;20020;-31
2022/03/13 11:52:10;;;;;;;8.10;5.35;;;15.60;50.80;;;;;;5093574;28;20052;-34
2022/03/13 11:54:45;;;;;;;8.95;5.45;;;15.70;51.30;;;;;;5092220;28;20464;-32
2022/03/13 11:57:16;;;;;;;10.25;5.97;;;15.60;51.50;;;;;;5093220;28;20036;-32
2022/03/13 11:59:43;;;;;;;8.60;6.53;;;15.70;51.80;;;;;;5093355;28;20023;-33
2022/03/13 12:02:12;;;;;;;7.78;5.85;;;15.80;52.10;;;;;;5075007;28;20460;-31
2022/03/13 12:04:38;;;;;;;8.82;5.35;;;15.90;52.90;;;;;;5093361;28;20521;-33
2022/03/13 12:07:06;;;;;;;8.35;6.18;;;15.90;52.80;;;;;;5074753;28;20016;-31
2022/03/13 12:09:39;;;;;;;8.40;6.05;;;16.00;53.00;;;;;;5074708;28;20027;-32
2022/03/13 12:12:07;;;;;;;8.57;4.75;;;16.10;52.70;;;;;;5093172;28;20024;-34
2022/03/13 12:15:08;;;;;;;4.47;3.63;;;16.10;54.50;;;;;;5092831;28;20090;-32
2022/03/13 12:17:47;;;;;;;9.68;5.50;;;16.20;55.10;;;;;;4991214;28;20030;-31
2022/03/13 12:20:26;;;;;;;6.47;4.38;;;16.20;54.10;;;;;;5081363;28;20040;-31
2022/03/13 12:22:56;;;;;;;6.38;4.97;;;16.30;54.20;;;;;;5092675;28;20024;-31
2022/03/13 12:25:24;;;;;;;7.25;5.22;;;16.40;54.40;;;;;;5092792;28;20098;-32
2022/03/13 12:27:50;;;;;;;5.80;4.50;;;16.50;53.30;;;;;;5092622;28;20031;-32
2022/03/13 12:30:26;;;;;;;6.38;4.78;;;16.50;52.80;;;;;;5092841;28;20413;-34
2022/03/13 12:33:03;;;;;;;5.00;4.05;;;16.60;53.30;;;;;;5092792;28;20384;-31
2022/03/13 12:35:28;;;;;;;6.03;4.57;;;16.70;53.80;;;;;;5092760;28;20024;-31
2022/03/13 12:37:56;;;;;;;6.20;4.90;;;16.70;53.30;;;;;;5093061;28;20028;-31
2022/03/13 12:40:23;;;;;;;4.82;3.85;;;16.80;52.70;;;;;;5092829;28;20032;-31
2022/03/13 12:42:54;;;;;;;4.60;3.55;;;16.90;53.50;;;;;;5074407;28;20028;-32
2022/03/13 12:45:21;;;;;;;6.20;4.22;;;16.90;53.60;;;;;;5092689;28;20030;-33